Weather at Jolai Delamere Estates Airport

Public forecast

Using degrees Celsius for public forecast. Weather courtesy of forecast.io.

Closest aviation weather report (METAR) to Jolai Delamere Estates Airport

Closest report is Nakuru Airport, 13.6 nm (25.3 km) N.

2024/07/19 08:00 (retrieved 1 hour ago)

HKNK 190800Z 00000KT 9999 SCT021 21/13

Closest aviation forecast (TAF) to Jolai Delamere Estates Airport

Closest forecast is Nairobi Wilson Airport, 60.9 nm (112.9 km) SE.

2024/07/19 06:57 (retrieved 2 hours ago)

TAF HKNW 190500Z 1906/2006 VRB02KT 9999 BKN018 BECMG 1908/1911 12010KT NSW SCT022 BKN080 BECMG 1920/1923 VRB03KT BKN020 TEMPO 2001/2005 -RA SCT009 BKN016